Wiota, Iowa
Current Conditions -  °F | °C
As of 11:35 PM on Wednesday 22 Oct 2014 (Local Time) from KAIO Reporting Station
Light Rain Light Rain  
Wind Chill: 57°   Ceiling: 3200
Heat Index: 57°   Visibility: 5mi
Dew Point: 55°   Wind: 10mph
Humidity: 94%   Direction: 140°SE
Pressure: 30.08"   Gusts: NA
Location:  41.4°N, 94.89°W
Report Text: KAIO 230435Z AUTO 14009KT 5SM -RA BKN032 BKN040 OVC075 14/13 A3008 RMK AO2
Loading
Personal Weather Stations






























Interactive Weather Map
Tropical Storm Tracking
New forecast layout! Learn more

10-Day Weather Forecast

Advertisements
Track Severe Weather on mobile